Time;durP1;ratioP1;P1;durP2;ratioP2;P2;SDS_P1;SDS_P2;PMS_P1;PMS_P2;Temp;Humidity;BMP_temperature;BMP_pressure;BME280_temperature;BME280_humidity;BME280_pressure;Samples;Min_cycle;Max_cycle;Signal;HPM_P1;HPM_P2
2022/06/23 00:00:29;;;;;;;7.30;5.88;;;11.70;99.90;;;10.58;100.00;101055.50;4964965;28;20094;-77
2022/06/23 00:03:01;;;;;;;6.22;5.60;;;11.60;99.90;;;10.52;99.22;101056.63;4968852;28;20035;-79
2022/06/23 00:05:36;;;;;;;9.60;6.18;;;11.60;99.90;;;10.52;100.00;101058.38;4976670;28;20030;-77
2022/06/23 00:08:09;;;;;;;5.53;4.60;;;11.50;99.90;;;10.51;100.00;101061.94;4941982;28;20505;-76
2022/06/23 00:10:44;;;;;;;6.30;5.28;;;11.50;99.90;;;10.49;100.00;101047.97;4952742;28;20272;-77
2022/06/23 00:13:31;;;;;;;5.18;4.68;;;11.50;99.90;;;10.43;99.36;101054.34;4930913;28;20039;-78
2022/06/23 00:15:57;;;;;;;11.40;4.57;;;11.40;99.90;;;10.26;98.93;101052.38;4953619;28;20024;-77
2022/06/23 00:18:33;;;;;;;5.53;5.03;;;11.40;99.90;;;10.20;98.99;101052.63;4947694;28;20038;-76
2022/06/23 00:21:07;;;;;;;;;;;11.40;99.90;;;10.11;98.97;101056.47;4983373;28;20042;-77
2022/06/23 00:23:42;;;;;;;201.27;12.52;;;11.20;99.90;;;10.06;98.98;101058.41;4941349;28;19945;-76
2022/06/23 00:26:18;;;;;;;5.00;4.60;;;11.20;99.90;;;9.99;100.00;101057.78;4937749;28;20029;-77
2022/06/23 00:29:01;;;;;;;5.20;4.40;;;11.10;99.90;;;9.95;100.00;101057.97;4952404;28;20079;-77
2022/06/23 00:31:40;;;;;;;120.18;8.40;;;11.10;99.90;;;9.91;100.00;101067.75;4943607;28;20088;-77
2022/06/23 00:34:31;;;;;;;8.40;7.60;;;11.00;99.90;;;9.86;100.00;101064.44;4966229;28;20048;-77
2022/06/23 00:37:19;;;;;;;4.90;4.50;;;11.00;99.90;;;9.83;100.00;101060.19;4953640;28;20046;-77
2022/06/23 00:39:59;;;;;;;4.95;4.55;;;10.90;99.90;;;9.81;100.00;101063.78;4967133;28;20458;-77
2022/06/23 00:42:40;;;;;;;6.38;5.78;;;10.90;99.90;;;9.81;100.00;101061.16;4966655;28;20022;-77
2022/06/23 00:45:11;;;;;;;480.40;15.95;;;10.90;99.90;;;9.78;100.00;101061.25;4962420;28;20080;-77
2022/06/23 00:48:14;;;;;;;150.57;11.50;;;10.90;99.90;;;9.69;100.00;101058.97;4965766;28;20117;-78
2022/06/23 00:51:11;;;;;;;17.63;7.05;;;10.80;99.90;;;9.65;100.00;101066.13;4967368;28;20034;-77
2022/06/23 00:53:54;;;;;;;17.40;6.50;;;10.70;99.90;;;9.67;100.00;101068.69;4935278;28;20037;-77
2022/06/23 00:56:45;;;;;;;11.57;7.00;;;10.80;99.90;;;9.73;100.00;101065.84;4957820;28;20022;-77
2022/06/23 00:59:41;;;;;;;10.38;8.35;;;10.80;99.90;;;9.79;100.00;101065.63;4975248;28;20603;-77
2022/06/23 01:02:30;;;;;;;11.02;7.80;;;10.90;99.90;;;9.82;100.00;101068.13;4956929;28;20034;-78
2022/06/23 01:05:05;;;;;;;389.65;11.38;;;10.80;99.90;;;9.78;100.00;101079.66;4960556;28;20449;-77
2022/06/23 01:07:43;;;;;;;369.52;10.85;;;10.80;99.90;;;9.65;100.00;101074.88;4968799;28;20049;-78
2022/06/23 01:10:49;;;;;;;5.85;4.72;;;10.70;99.90;;;9.53;100.00;101083.22;4948965;28;20498;-78
2022/06/23 01:13:38;;;;;;;346.73;14.00;;;10.60;99.90;;;9.41;100.00;101081.03;4946084;28;20463;-77
2022/06/23 01:16:49;;;;;;;571.20;16.92;;;10.50;99.90;;;9.26;100.00;101090.31;4946684;28;20034;-77
2022/06/23 01:20:02;;;;;;;652.42;19.23;;;10.40;99.90;;;9.14;100.00;101096.84;4941549;28;20040;-77
2022/06/23 01:22:53;;;;;;;577.45;17.48;;;10.30;99.90;;;9.09;100.00;101100.53;4966102;28;20422;-77
2022/06/23 01:25:53;;;;;;;439.45;11.95;;;10.30;99.90;;;9.15;100.00;101090.69;4976200;28;20038;-76
2022/06/23 01:28:23;;;;;;;8.40;7.20;;;10.40;99.90;;;9.24;100.00;101097.38;4974915;28;20633;-76
2022/06/23 01:31:06;;;;;;;8.48;6.88;;;10.40;99.90;;;9.34;100.00;101101.41;4927206;28;20037;-77
2022/06/23 01:33:57;;;;;;;157.90;9.55;;;10.50;99.90;;;9.44;100.00;101109.84;4967267;28;20041;-77
2022/06/23 01:36:35;;;;;;;669.40;19.30;;;10.50;99.90;;;9.51;100.00;101113.09;4975228;28;20097;-77
2022/06/23 01:39:12;;;;;;;321.10;13.13;;;10.60;99.90;;;9.56;100.00;101111.16;4968916;28;20126;-77
2022/06/23 01:41:42;;;;;;;682.17;22.52;;;10.70;99.90;;;9.59;100.00;101108.41;4982114;28;20043;-77
2022/06/23 01:44:36;;;;;;;152.63;12.65;;;10.70;99.90;;;9.58;100.00;101118.06;4955506;28;20045;-77
2022/06/23 01:47:18;;;;;;;11.98;9.00;;;10.70;99.90;;;9.58;100.00;101117.22;4949767;28;20038;-77
2022/06/23 01:49:47;;;;;;;17.48;10.95;;;10.70;99.90;;;9.58;100.00;101122.47;4943251;28;20072;-77
2022/06/23 01:52:20;;;;;;;80.97;12.88;;;10.70;99.90;;;9.57;100.00;101121.63;4966042;28;20100;-77
2022/06/23 01:54:55;;;;;;;58.85;4.22;;;10.60;99.90;;;9.47;100.00;101130.75;4935801;28;20030;-77
2022/06/23 01:57:37;;;;;;;10.60;5.03;;;10.50;99.90;;;9.30;100.00;101133.09;4939855;28;20030;-77
2022/06/23 02:00:13;;;;;;;9.50;6.95;;;10.40;99.90;;;9.20;100.00;101124.66;4946544;28;20049;-77
2022/06/23 02:02:50;;;;;;;;;;;10.40;99.90;;;9.09;100.00;101130.28;4966002;28;20077;-77
2022/06/23 02:05:55;;;;;;;714.87;31.07;;;10.20;99.90;;;9.04;100.00;101140.09;4947262;28;19979;-76
2022/06/23 02:08:51;;;;;;;477.23;21.83;;;10.20;99.90;;;9.07;100.00;101137.41;4950632;28;20669;-77
2022/06/23 02:11:29;;;;;;;285.60;17.20;;;10.30;99.90;;;9.16;100.00;101137.06;4957403;28;20065;-77
2022/06/23 02:14:03;;;;;;;701.97;27.23;;;10.30;99.90;;;9.24;100.00;101139.44;4958196;28;20026;-77
2022/06/23 02:17:20;;;;;;;522.40;23.55;;;10.40;99.90;;;9.34;100.00;101139.97;4961974;28;20564;-77
2022/06/23 02:20:21;;;;;;;299.20;21.08;;;10.40;99.90;;;9.40;100.00;101147.66;4896957;28;20734;-76
2022/06/23 02:22:57;;;;;;;544.40;25.90;;;10.50;99.90;;;9.43;100.00;101153.63;4947944;28;20114;-77
2022/06/23 02:25:33;;;;;;;425.52;28.75;;;10.50;99.90;;;9.44;100.00;101158.00;4947912;28;20069;-77
2022/06/23 02:28:36;;;;;;;348.45;24.30;;;10.50;99.90;;;9.49;100.00;101157.84;4968608;28;20032;-76
2022/06/23 02:31:34;;;;;;;16.30;11.60;;;10.60;99.90;;;9.53;100.00;101155.97;4972936;28;20128;-76
2022/06/23 02:34:16;;;;;;;52.15;12.98;;;10.60;99.90;;;9.58;100.00;101152.25;4963859;28;21066;-78
2022/06/23 02:36:42;;;;;;;47.40;11.55;;;10.70;99.90;;;9.63;100.00;101145.06;4956581;28;20101;-76
2022/06/23 02:39:23;;;;;;;59.60;10.32;;;10.70;99.90;;;9.71;100.00;101150.03;4983288;28;20036;-76
2022/06/23 02:42:01;;;;;;;12.05;10.65;;;10.80;99.90;;;9.76;100.00;101157.75;4972359;28;20088;-76
2022/06/23 02:45:22;;;;;;;341.02;16.00;;;10.80;99.90;;;9.81;100.00;101156.69;4929612;28;20414;-77
2022/06/23 02:47:59;;;;;;;270.58;11.52;;;10.80;99.90;;;9.81;100.00;101154.06;4971158;28;20043;-77
2022/06/23 02:51:22;;;;;;;49.75;9.15;;;10.80;99.90;;;9.81;100.00;101155.84;4945323;28;20050;-77
2022/06/23 02:54:39;;;;;;;48.55;8.13;;;10.90;99.90;;;9.80;100.00;101165.47;4945317;28;20030;-76
2022/06/23 02:57:58;;;;;;;399.88;15.70;;;10.90;99.90;;;9.77;100.00;101170.00;4960641;28;20065;-77
2022/06/23 03:01:10;;;;;;;11.88;10.27;;;10.80;99.90;;;9.72;100.00;101161.41;4956034;28;20035;-76
2022/06/23 03:03:57;;;;;;;480.55;20.98;;;10.80;99.90;;;9.70;100.00;101166.75;4943382;28;20035;-77
2022/06/23 03:06:45;;;;;;;231.98;21.23;;;10.70;99.90;;;9.69;100.00;101166.78;4965465;28;20033;-76
2022/06/23 03:09:28;;;;;;;17.13;13.68;;;10.70;99.90;;;9.64;100.00;101170.44;4951082;28;20097;-77
2022/06/23 03:12:27;;;;;;;22.77;13.02;;;10.70;99.90;;;9.62;100.00;101168.78;4949304;28;20376;-76
2022/06/23 03:15:03;;;;;;;16.27;14.43;;;10.70;99.90;;;9.61;100.00;101170.56;4955987;28;20077;-78
2022/06/23 03:18:07;;;;;;;658.78;36.72;;;10.70;99.90;;;9.66;100.00;101175.66;4947775;28;20545;-76
2022/06/23 03:20:47;;;;;;;32.67;19.27;;;11.00;99.90;;;9.70;100.00;101168.50;4922916;28;20042;-77
2022/06/23 03:23:27;;;;;;;30.30;15.25;;;10.70;99.90;;;9.74;100.00;101176.25;4957442;28;20026;-77
2022/06/23 03:26:43;;;;;;;22.77;12.40;;;10.80;99.90;;;9.85;100.00;101174.06;4963569;28;20046;-76
2022/06/23 03:29:23;;;;;;;29.42;11.88;;;10.90;99.90;;;9.98;100.00;101174.47;4892939;28;20042;-76
2022/06/23 03:32:18;;;;;;;24.35;12.82;;;11.00;99.90;;;10.16;100.00;101172.06;4911613;28;20106;-76
2022/06/23 03:34:59;;;;;;;25.02;12.18;;;11.10;99.90;;;10.31;100.00;101181.19;4949324;28;20073;-76
2022/06/23 03:37:49;;;;;;;30.88;10.65;;;11.40;99.90;;;10.63;100.00;101185.22;4958348;28;20023;-76
2022/06/23 03:43:48;;;;;;;22.08;9.25;;;13.20;99.90;;;12.78;100.00;101196.91;4961940;28;20076;-77
2022/06/23 03:46:27;;;;;;;13.07;7.68;;;14.90;99.90;;;14.56;93.29;101206.28;4980409;28;20038;-76
2022/06/23 03:49:17;;;;;;;14.07;6.75;;;16.40;99.90;;;16.24;84.78;101214.13;4961838;28;20383;-77
2022/06/23 03:51:55;;;;;;;8.50;5.10;;;18.10;99.90;;;18.10;76.82;101225.81;4957707;28;20541;-78
2022/06/23 03:55:06;;;;;;;15.48;5.43;;;19.60;99.90;;;19.94;69.22;101238.94;4956073;28;20038;-76
2022/06/23 03:57:56;;;;;;;6.97;4.03;;;21.00;99.90;;;21.10;63.81;101243.91;4972819;28;20089;-76
2022/06/23 04:00:27;;;;;;;6.28;3.40;;;22.30;99.90;;;22.33;59.74;101246.88;4973551;28;20030;-76
2022/06/23 04:04:01;;;;;;;17.83;7.47;;;23.40;99.90;;;23.47;55.74;101253.59;4968563;28;20038;-77
2022/06/23 04:06:42;;;;;;;30.33;7.82;;;24.40;99.70;;;24.27;52.86;101272.13;4957192;28;20078;-77
2022/06/23 04:09:19;;;;;;;27.10;7.85;;;25.10;99.30;;;25.01;51.36;101279.28;4953744;28;20034;-76
2022/06/23 04:12:11;;;;;;;24.17;7.75;;;25.70;98.20;;;25.84;49.50;101284.41;4964884;28;20037;-77
2022/06/23 04:14:54;;;;;;;38.13;7.95;;;26.50;97.00;;;26.68;47.40;101285.59;4977777;28;20450;-76
2022/06/23 04:17:25;;;;;;;29.63;7.80;;;27.20;96.70;;;27.37;46.09;101291.66;4981309;28;20088;-76
2022/06/23 04:20:22;;;;;;;30.08;6.93;;;27.80;95.50;;;28.21;44.90;101297.72;4963927;28;20073;-77
2022/06/23 04:22:59;;;;;;;16.05;5.00;;;28.50;94.70;;;28.98;43.30;101312.47;4965962;28;20085;-77
2022/06/23 04:25:51;;;;;;;5.07;4.10;;;29.00;94.10;;;29.63;42.47;101331.03;4973015;28;20027;-76
2022/06/23 04:28:55;;;;;;;9.48;4.57;;;29.60;93.10;;;30.36;41.71;101339.53;4925229;28;20026;-76
2022/06/23 04:31:30;;;;;;;17.83;4.78;;;30.20;93.10;;;31.10;40.24;101354.09;4966477;28;20556;-77
2022/06/23 04:33:57;;;;;;;18.50;5.10;;;30.50;91.50;;;31.25;39.73;101358.47;4957926;28;20080;-76
2022/06/23 04:36:30;;;;;;;20.58;4.97;;;30.80;90.90;;;31.60;39.04;101366.81;4966902;28;20072;-77
2022/06/23 04:39:08;;;;;;;24.27;5.43;;;31.00;90.60;;;31.87;38.65;101367.03;4955294;28;20041;-77
2022/06/23 04:42:10;;;;;;;26.73;7.63;;;31.40;91.10;;;32.45;38.51;101373.16;4954656;28;20026;-77
2022/06/23 04:44:49;;;;;;;16.92;6.13;;;32.00;90.70;;;33.42;37.29;101397.75;4949593;28;20033;-77
2022/06/23 04:47:23;;;;;;;16.15;5.78;;;32.50;90.00;;;34.15;36.19;101399.72;4967018;28;20030;-76
2022/06/23 04:49:55;;;;;;;16.25;5.22;;;33.00;90.00;;;34.83;35.27;101399.41;4982651;28;20428;-77
2022/06/23 04:52:41;;;;;;;25.33;5.85;;;33.60;88.70;;;35.61;34.58;101409.34;4967519;28;20029;-77
2022/06/23 04:55:23;;;;;;;21.60;6.07;;;33.90;85.90;;;35.72;33.54;101423.22;4966769;28;20056;-77
2022/06/23 04:58:21;;;;;;;17.67;5.43;;;33.90;84.90;;;35.50;34.44;101419.09;4972149;28;20046;-77
2022/06/23 05:00:52;;;;;;;23.63;5.70;;;34.40;86.90;;;36.31;33.37;101429.28;4982884;28;20040;-77
2022/06/23 05:03:32;;;;;;;19.20;5.20;;;34.90;86.50;;;37.28;32.07;101447.84;4989043;28;20037;-77
2022/06/23 05:06:34;;;;;;;16.35;4.90;;;35.40;85.60;;;38.04;30.90;101450.16;4994755;28;20120;-78
2022/06/23 05:09:26;;;;;;;11.77;4.75;;;36.00;81.90;;;38.70;29.68;101454.44;4994002;28;20079;-77
2022/06/23 05:12:02;;;;;;;14.85;4.32;;;36.40;82.40;;;39.16;29.53;101446.38;4987569;28;20046;-77
2022/06/23 05:14:34;;;;;;;16.52;4.13;;;36.80;80.40;;;39.64;28.96;101458.03;4982445;28;20042;-77
2022/06/23 05:17:31;;;;;;;10.05;4.20;;;37.20;80.60;;;40.41;28.10;101460.16;4966985;28;20658;-77
2022/06/23 05:20:06;;;;;;;14.32;4.55;;;37.70;79.20;;;40.76;27.72;101465.38;4942201;28;20046;-77
2022/06/23 05:22:45;;;;;;;9.57;4.00;;;38.10;78.30;;;41.19;27.05;101471.16;4974797;28;20026;-77
2022/06/23 05:25:32;;;;;;;8.60;3.90;;;38.40;75.60;;;40.94;26.43;101472.50;4966061;28;20030;-77
2022/06/23 05:27:58;;;;;;;7.55;3.47;;;38.30;74.50;;;40.81;27.24;101467.38;4979828;28;20065;-76
2022/06/23 05:30:31;;;;;;;11.45;3.75;;;38.30;76.40;;;40.99;26.85;101475.31;4974096;28;20026;-77
2022/06/23 05:33:15;;;;;;;11.27;3.58;;;38.50;75.70;;;41.70;26.52;101474.47;4975127;28;20033;-78
2022/06/23 05:36:03;;;;;;;7.28;3.60;;;38.90;76.00;;;42.14;25.81;101477.09;4965335;28;20029;-76
2022/06/23 05:38:58;;;;;;;8.52;3.58;;;39.20;73.00;;;42.33;25.27;101474.72;4968383;28;20033;-78
2022/06/23 05:41:39;;;;;;;10.50;3.70;;;39.30;71.10;;;41.82;24.98;101488.16;4951017;28;20042;-77
2022/06/23 05:44:16;;;;;;;8.32;3.30;;;39.20;73.50;;;41.89;26.15;101472.16;4974186;28;20065;-77
2022/06/23 05:46:44;;;;;;;5.88;2.92;;;39.00;72.60;;;40.86;27.09;101470.19;4956452;28;20027;-77
2022/06/23 05:49:35;;;;;;;5.00;2.65;;;38.70;71.80;;;40.06;26.34;101465.94;4972858;28;20023;-77
2022/06/23 05:52:12;;;;;;;6.07;2.30;;;37.70;69.40;;;38.17;28.41;101452.66;4949425;28;20100;-78
2022/06/23 05:54:59;;;;;;;4.43;2.30;;;37.10;71.60;;;37.59;29.06;101442.38;4971635;28;20040;-77
2022/06/23 05:57:34;;;;;;;4.95;1.95;;;36.40;72.50;;;36.51;30.60;101444.69;4980121;28;20030;-77
2022/06/23 06:00:24;;;;;;;8.02;2.00;;;35.60;73.70;;;35.60;31.01;101438.63;4967432;28;20041;-76
2022/06/23 06:03:25;;;;;;;3.97;1.88;;;34.70;76.30;;;35.21;31.91;101432.31;4962621;28;20058;-77
2022/06/23 06:05:56;;;;;;;3.75;1.83;;;34.50;76.30;;;35.47;31.57;101430.50;4954558;28;20041;-77
2022/06/23 06:11:34;;;;;;;4.97;1.58;;;33.00;75.40;;;33.09;34.26;101414.88;4982313;28;20119;-77
2022/06/23 06:14:01;;;;;;;5.78;1.55;;;33.10;79.00;;;34.33;33.08;101412.75;4948697;28;20026;-77
2022/06/23 06:16:28;;;;;;;7.07;1.48;;;33.60;77.60;;;35.44;31.84;101423.53;4965791;28;20139;-77
2022/06/23 06:18:54;;;;;;;3.92;1.70;;;34.10;76.40;;;35.87;31.52;101425.59;4952704;28;20068;-77
2022/06/23 06:21:23;;;;;;;5.20;1.40;;;34.30;75.90;;;35.37;31.84;101430.13;4974518;28;20066;-76
2022/06/23 06:24:08;;;;;;;4.28;1.23;;;33.60;72.10;;;32.06;33.52;101422.75;4957373;28;20492;-77
2022/06/23 06:26:45;;;;;;;6.63;1.35;;;32.30;76.10;;;30.27;37.68;101394.97;4941692;28;20496;-77
2022/06/23 06:29:46;;;;;;;2.83;1.40;;;31.20;80.20;;;30.81;37.51;101386.56;4944503;28;20088;-76
2022/06/23 06:32:37;;;;;;;4.75;1.40;;;30.90;80.50;;;30.59;37.56;101384.81;4953758;28;20597;-77
2022/06/23 06:35:21;;;;;;;5.13;1.80;;;30.70;81.60;;;29.94;38.52;101378.16;4974509;28;20414;-77
2022/06/23 06:38:09;;;;;;;11.00;2.00;;;30.20;82.20;;;29.92;39.19;101372.88;4980206;28;20031;-77
2022/06/23 06:40:39;;;;;;;4.75;1.80;;;30.50;82.30;;;32.05;35.91;101382.91;4971082;28;20050;-77
2022/06/23 06:43:12;;;;;;;4.13;1.63;;;31.60;81.20;;;34.13;33.30;101397.22;4950767;28;20072;-76
2022/06/23 06:45:40;;;;;;;4.28;1.52;;;32.90;81.20;;;35.31;32.23;101402.59;4983219;28;20111;-78
2022/06/23 06:48:21;;;;;;;4.80;1.60;;;34.10;77.30;;;35.65;31.09;101410.59;4949734;28;20038;-77
2022/06/23 06:50:55;;;;;;;3.55;1.30;;;34.80;76.00;;;36.59;30.33;101419.72;4947275;28;20100;-77
2022/06/23 06:53:33;;;;;;;4.47;1.40;;;35.70;76.20;;;37.85;29.50;101435.63;4954314;28;20038;-76
2022/06/23 06:56:19;;;;;;;5.65;2.20;;;36.40;72.50;;;37.34;28.52;101444.16;4976460;28;20038;-78
2022/06/23 06:59:00;;;;;;;4.40;1.80;;;36.70;69.70;;;37.19;28.80;101438.22;4923196;28;20054;-77
2022/06/23 07:01:27;;;;;;;7.32;1.65;;;37.00;73.00;;;37.82;28.88;101447.94;4966338;28;20026;-77
2022/06/23 07:03:55;;;;;;;5.38;1.80;;;37.50;70.20;;;38.22;27.72;101458.28;4986464;28;20405;-77
2022/06/23 07:06:35;;;;;;;2.22;1.30;;;37.80;70.40;;;38.51;27.88;101466.66;4981540;28;20485;-77
2022/06/23 07:09:27;;;;;;;3.03;1.50;;;37.80;67.00;;;37.98;27.52;101479.38;4980075;28;20421;-77
2022/06/23 07:12:02;;;;;;;3.03;1.60;;;37.80;67.40;;;38.16;27.24;101486.72;4966186;28;20688;-77
2022/06/23 07:14:50;;;;;;;4.65;1.30;;;37.50;67.50;;;37.34;28.53;101474.38;4980751;28;20158;-77
2022/06/23 07:17:37;;;;;;;2.78;1.60;;;37.20;68.40;;;37.32;28.27;101476.50;4980010;28;20026;-78
2022/06/23 07:20:14;;;;;;;10.32;1.90;;;37.40;70.50;;;38.01;28.77;101467.06;4958547;28;20034;-77
2022/06/23 07:23:30;;;;;;;2.58;1.20;;;37.80;69.80;;;37.55;27.96;101469.44;4955346;28;20977;-78
2022/06/23 07:26:14;;;;;;;7.00;1.55;;;37.70;69.30;;;37.15;28.66;101469.97;4954199;28;20748;-77
2022/06/23 07:28:52;;;;;;;4.68;1.50;;;37.40;70.20;;;37.76;28.72;101466.19;4938257;28;20042;-78
2022/06/23 07:31:25;;;;;;;4.00;1.67;;;37.30;67.10;;;37.63;28.45;101479.28;4914613;28;20425;-77
2022/06/23 07:34:02;;;;;;;3.72;1.48;;;37.30;69.10;;;37.73;27.48;101474.03;4963793;28;20029;-77
2022/06/23 07:36:46;;;;;;;3.10;1.27;;;37.50;69.00;;;38.05;28.34;101465.56;4972569;28;20029;-77
2022/06/23 07:39:28;;;;;;;5.07;1.40;;;37.80;69.60;;;38.36;27.89;101478.13;4971352;28;20477;-77
2022/06/23 07:42:13;;;;;;;4.25;1.27;;;37.60;66.10;;;37.46;28.13;101471.66;4962880;28;20069;-77
2022/06/23 07:44:46;;;;;;;3.03;1.50;;;37.00;68.00;;;36.88;29.44;101464.75;4951961;28;20598;-77
2022/06/23 07:47:12;;;;;;;5.07;1.30;;;36.70;68.50;;;36.50;28.96;101456.69;4976728;28;20030;-77
2022/06/23 07:49:38;;;;;;;4.40;1.60;;;36.20;69.90;;;35.96;30.27;101450.81;4963710;28;20386;-78
2022/06/23 07:52:04;;;;;;;3.28;1.40;;;35.50;69.30;;;34.62;31.27;101450.53;4952801;28;20053;-77
2022/06/23 07:54:31;;;;;;;4.07;1.58;;;35.20;70.20;;;34.68;31.93;101447.00;4981995;28;20014;-77
2022/06/23 07:56:57;;;;;;;3.70;1.50;;;35.00;70.80;;;34.99;31.36;101436.38;4973101;28;20030;-77
2022/06/23 07:59:42;;;;;;;4.40;1.50;;;34.60;70.80;;;34.35;31.43;101427.91;4947997;28;20057;-77
2022/06/23 08:02:43;;;;;;;2.55;1.40;;;34.50;70.80;;;33.42;32.21;101423.16;4972833;28;20141;-77
2022/06/23 08:05:27;;;;;;;2.83;1.27;;;33.50;72.20;;;32.83;34.00;101408.22;4935729;28;20050;-77
2022/06/23 08:07:55;;;;;;;3.40;1.40;;;32.90;74.10;;;32.77;34.62;101400.84;4933056;28;20114;-77
2022/06/23 08:10:30;;;;;;;3.38;1.30;;;32.50;75.70;;;31.89;35.19;101386.75;4951522;28;20116;-77
2022/06/23 08:13:11;;;;;;;1.90;1.10;;;32.20;74.90;;;31.75;35.17;101393.09;4951569;28;20049;-77
2022/06/23 08:19:10;;;;;;;4.80;1.20;;;31.40;78.40;;;31.22;36.69;101372.44;4948082;28;20088;-77
2022/06/23 08:21:46;;;;;;;2.30;1.00;;;30.60;79.00;;;29.75;39.33;101364.03;4987405;28;20030;-77
2022/06/23 08:24:14;;;;;;;4.85;1.20;;;29.90;79.10;;;28.88;40.98;101353.34;4967728;28;20048;-77
2022/06/23 08:26:46;;;;;;;2.53;1.10;;;29.80;79.80;;;29.54;39.46;101367.38;4950285;28;20091;-76
2022/06/23 08:29:17;;;;;;;1.52;0.82;;;29.80;82.80;;;29.68;40.41;101360.34;4943426;28;20038;-77
2022/06/23 08:31:43;;;;;;;3.08;1.20;;;29.50;81.80;;;28.83;41.55;101351.19;4960468;28;20034;-77
2022/06/23 08:34:10;;;;;;;2.70;1.15;;;29.10;82.90;;;28.43;42.04;101344.84;4967273;28;20037;-77
2022/06/23 08:36:49;;;;;;;3.10;1.00;;;28.60;82.50;;;27.47;43.79;101340.16;4977150;28;20447;-77
2022/06/23 08:40:05;;;;;;;2.53;0.98;;;28.40;85.10;;;27.65;44.46;101344.59;4983810;28;20041;-77
2022/06/23 08:43:11;;;;;;;3.63;1.13;;;28.30;85.10;;;27.92;42.56;101343.44;4985729;28;20050;-77
2022/06/23 08:46:05;;;;;;;7.53;1.25;;;28.40;84.30;;;28.16;42.92;101345.25;4937466;23;20042;-77
2022/06/23 08:48:55;;;;;;;2.50;0.95;;;28.60;84.00;;;28.31;41.77;101343.53;4964509;28;20169;-78
2022/06/23 08:51:55;;;;;;;4.03;1.00;;;28.70;84.40;;;28.38;41.80;101340.97;4944267;28;20022;-78
2022/06/23 08:54:50;;;;;;;2.85;1.10;;;28.90;83.40;;;28.19;41.87;101342.22;4959878;28;20034;-77
2022/06/23 08:57:32;;;;;;;2.67;0.80;;;28.60;84.70;;;27.89;42.60;101322.97;4949090;28;20027;-77
2022/06/23 09:00:00;;;;;;;1.83;0.98;;;28.50;85.30;;;27.98;43.16;101321.94;4957167;28;20104;-78
2022/06/23 09:03:13;;;;;;;2.40;0.80;;;28.60;85.30;;;28.12;43.18;101322.25;4944591;28;20022;-77
2022/06/23 09:06:03;;;;;;;3.50;0.90;;;28.30;86.50;;;27.24;45.11;101309.41;4915416;28;20487;-77
2022/06/23 09:09:27;;;;;;;5.13;1.23;;;28.00;86.30;;;26.42;46.60;101300.97;4949850;28;20215;-78
2022/06/23 09:12:33;;;;;;;5.22;1.40;;;27.20;87.10;;;25.22;48.71;101300.53;4953296;28;20038;-78
2022/06/23 09:15:39;;;;;;;3.45;1.10;;;26.60;89.90;;;25.31;50.54;101296.97;4961641;28;20038;-77
2022/06/23 09:18:52;;;;;;;2.95;1.08;;;26.60;90.40;;;25.57;49.24;101307.81;4945749;28;20050;-77
2022/06/23 09:22:10;;;;;;;1.98;0.90;;;26.60;91.20;;;25.58;50.08;101303.25;4963289;28;20070;-77
2022/06/23 09:24:46;;;;;;;;;;;26.30;91.00;;;24.89;51.64;101296.66;4967477;28;20061;-78
2022/06/23 09:27:50;;;;;;;2.58;1.10;;;25.80;91.40;;;24.52;51.45;101300.25;4969444;28;19991;-77
2022/06/23 09:30:50;;;;;;;2.65;0.80;;;25.80;90.90;;;24.84;50.85;101305.19;4954646;28;21330;-77
2022/06/23 09:33:30;;;;;;;2.63;1.00;;;25.80;90.60;;;24.87;49.76;101304.03;4962091;28;20042;-79
2022/06/23 09:36:47;;;;;;;2.75;0.82;;;25.80;91.50;;;25.10;50.82;101305.28;4929538;28;20109;-77
2022/06/23 09:39:25;;;;;;;1.88;0.73;;;25.80;91.10;;;25.03;50.65;101303.34;4946731;28;20042;-77
2022/06/23 09:42:21;;;;;;;2.72;1.00;;;26.00;91.40;;;25.38;50.83;101307.97;4945044;28;20435;-78
2022/06/23 09:45:21;;;;;;;1.83;0.90;;;25.90;90.60;;;24.93;50.36;101298.88;4950292;28;21217;-78
2022/06/23 09:48:30;;;;;;;3.72;1.20;;;26.00;91.50;;;25.43;50.15;101291.31;4962800;28;21494;-77
2022/06/23 09:51:14;;;;;;;2.30;1.10;;;26.10;92.00;;;25.33;50.68;101292.22;4935647;28;20531;-77
2022/06/23 09:54:12;;;;;;;3.17;1.10;;;26.00;91.70;;;24.82;53.33;101288.31;4968170;28;20050;-77
2022/06/23 09:57:18;;;;;;;5.07;1.00;;;25.80;91.90;;;24.58;52.00;101299.66;4900023;28;20023;-77
2022/06/23 10:00:20;;;;;;;3.55;1.25;;;25.60;91.70;;;24.95;51.65;101290.66;4969961;28;20415;-78
2022/06/23 10:02:59;;;;;;;2.58;0.85;;;25.80;93.30;;;25.15;51.92;101286.81;4927471;28;20138;-77
2022/06/23 10:06:06;;;;;;;2.25;1.00;;;26.10;92.50;;;25.66;51.59;101286.28;4945652;28;20049;-78
2022/06/23 10:08:46;;;;;;;2.45;1.00;;;26.40;92.20;;;25.95;49.58;101291.41;4943996;28;20022;-77
2022/06/23 10:12:00;;;;;;;3.22;1.15;;;26.60;91.90;;;26.26;50.98;101286.34;4950760;28;20038;-77
2022/06/23 10:15:32;;;;;;;2.55;1.13;;;26.80;91.20;;;26.43;50.31;101286.44;4952178;28;20375;-77
2022/06/23 10:18:16;;;;;;;2.63;0.70;;;27.10;91.40;;;26.78;48.99;101283.59;4930937;28;20533;-76
2022/06/23 10:21:14;;;;;;;1.88;0.90;;;27.50;90.80;;;27.26;46.31;101296.53;4944353;28;20051;-79
2022/06/23 10:24:16;;;;;;;2.97;1.08;;;27.80;90.00;;;27.59;46.63;101287.44;4960234;28;20060;-77
2022/06/23 10:27:11;;;;;;;1.75;0.95;;;28.00;90.60;;;27.50;46.29;101285.75;4923243;28;20510;-77
2022/06/23 10:30:19;;;;;;;2.97;0.80;;;28.00;90.10;;;27.36;47.49;101283.72;4926840;28;20066;-77
2022/06/23 10:33:22;;;;;;;1.75;1.05;;;28.20;90.20;;;27.66;45.49;101284.91;4955473;28;20128;-78
2022/06/23 10:36:02;;;;;;;2.58;0.90;;;28.40;90.50;;;27.85;46.55;101282.88;4948058;28;20034;-78
2022/06/23 10:39:31;;;;;;;2.70;0.88;;;28.30;88.40;;;27.11;46.11;101285.53;4954404;28;20049;-77
2022/06/23 10:42:20;;;;;;;1.55;0.90;;;28.10;90.00;;;27.04;46.57;101288.06;4956053;28;20046;-78
2022/06/23 10:45:13;;;;;;;4.80;0.95;;;27.60;88.10;;;26.36;47.69;101276.28;4953248;28;20070;-77
2022/06/23 10:48:14;;;;;;;1.48;0.73;;;27.40;90.40;;;26.57;48.79;101265.13;4956283;28;20026;-79
2022/06/23 10:51:27;;;;;;;1.63;0.93;;;27.60;91.00;;;27.27;48.27;101272.06;4951414;28;20038;-79
2022/06/23 10:54:26;;;;;;;4.43;0.70;;;27.60;87.30;;;26.68;44.77;101276.63;4954403;28;20030;-79
2022/06/23 10:57:04;;;;;;;2.40;0.88;;;27.80;88.20;;;27.20;46.09;101274.53;4962572;28;20696;-77
2022/06/23 10:59:47;;;;;;;2.25;0.70;;;27.80;87.60;;;27.06;45.04;101285.16;4950544;28;20055;-77
2022/06/23 11:02:54;;;;;;;3.88;0.80;;;27.80;86.20;;;27.07;45.29;101281.47;4929512;28;20403;-77
2022/06/23 11:05:23;;;;;;;3.47;0.75;;;27.70;89.10;;;26.94;46.29;101269.28;4939540;28;20153;-77
2022/06/23 11:08:26;;;;;;;2.13;1.05;;;27.70;86.90;;;27.06;46.03;101266.25;4930368;28;20030;-77
2022/06/23 11:11:19;;;;;;;2.33;0.68;;;27.80;87.90;;;27.11;46.09;101272.84;4949242;28;20042;-79
2022/06/23 11:14:02;;;;;;;2.20;0.60;;;27.80;88.10;;;27.03;45.32;101278.25;4961815;28;20037;-77
2022/06/23 11:16:51;;;;;;;0.80;0.75;;;27.80;87.50;;;27.32;44.86;101282.34;4938767;28;21214;-77
2022/06/23 11:19:38;;;;;;;2.42;0.60;;;28.10;86.20;;;27.73;42.86;101285.06;4927267;28;20073;-78
2022/06/23 11:22:31;;;;;;;2.67;0.73;;;28.40;87.90;;;28.22;44.92;101275.00;4932120;28;20467;-77
2022/06/23 11:25:44;;;;;;;3.58;0.80;;;28.50;89.70;;;27.86;44.90;101269.19;4954334;23;20045;-78
2022/06/23 11:28:30;;;;;;;1.95;0.80;;;28.30;88.60;;;27.38;46.60;101260.06;4984112;28;20036;-78
2022/06/23 11:31:25;;;;;;;3.88;0.90;;;28.00;90.00;;;27.01;46.61;101256.78;4982429;28;20029;-78
2022/06/23 11:34:23;;;;;;;1.83;0.90;;;27.90;88.60;;;27.23;46.29;101265.28;4971005;28;20398;-78
2022/06/23 11:36:54;;;;;;;1.13;0.90;;;27.80;90.10;;;27.05;47.78;101253.75;4960338;28;20390;-78